createdAt,value
2019-05-12T00:01:44.909Z,34.50
2019-05-12T00:04:15.983Z,34.70
2019-05-12T00:06:47.858Z,34.90
2019-05-12T00:09:18.904Z,35.60
2019-05-12T00:11:49.739Z,35.40
2019-05-12T00:14:20.757Z,35.20
2019-05-12T00:16:51.094Z,36.20
2019-05-12T00:19:21.823Z,36.50
2019-05-12T00:21:52.424Z,36.20
2019-05-12T00:24:23.227Z,36.60
2019-05-12T00:26:55.524Z,37.20
2019-05-12T00:29:25.855Z,37.00
2019-05-12T00:31:58.024Z,36.80
2019-05-12T00:34:29.002Z,37.50
2019-05-12T00:36:59.367Z,37.50
2019-05-12T00:39:29.709Z,37.50
2019-05-12T00:42:00.073Z,38.60
2019-05-12T00:44:30.418Z,37.50
2019-05-12T00:47:01.222Z,37.50
2019-05-12T00:49:31.545Z,37.90
2019-05-12T00:52:01.973Z,38.60
2019-05-12T00:54:32.398Z,38.90
2019-05-12T00:57:13.313Z,38.70
2019-05-12T00:59:43.732Z,39.20
2019-05-12T01:02:14.115Z,39.30
2019-05-12T01:04:44.718Z,39.90
2019-05-12T01:07:15.109Z,40.30
2019-05-12T01:09:45.604Z,40.30
2019-05-12T01:12:18.129Z,41.10
2019-05-12T01:14:48.579Z,40.90
2019-05-12T01:17:18.984Z,40.80
2019-05-12T01:19:49.347Z,41.10
2019-05-12T01:22:19.718Z,41.40
2019-05-12T01:24:50.386Z,41.50
2019-05-12T01:27:20.721Z,42.20
2019-05-12T01:29:51.448Z,42.10
2019-05-12T01:32:30.078Z,42.80
2019-05-12T01:35:01.065Z,43.00
2019-05-12T01:37:31.554Z,43.30
2019-05-12T01:40:02.183Z,44.20
2019-05-12T01:42:32.784Z,43.60
2019-05-12T01:45:03.458Z,44.70
2019-05-12T01:47:34.183Z,44.20
2019-05-12T01:50:08.744Z,44.60
2019-05-12T01:52:38.875Z,44.80
2019-05-12T01:55:09.823Z,45.10
2019-05-12T01:57:40.171Z,45.30
2019-05-12T02:00:12.328Z,45.50
2019-05-12T02:02:42.661Z,46.10
2019-05-12T02:05:13.415Z,46.30
2019-05-12T02:07:48.176Z,46.20
2019-05-12T02:10:20.015Z,46.70
2019-05-12T02:12:50.614Z,46.70
2019-05-12T02:15:22.494Z,46.70
2019-05-12T02:17:53.217Z,46.40
2019-05-12T02:20:24.062Z,46.30
2019-05-12T02:22:54.424Z,45.90
2019-05-12T02:25:25.126Z,46.60
2019-05-12T02:27:58.130Z,46.50
2019-05-12T02:30:30.503Z,46.20
2019-05-12T02:33:00.423Z,46.70
2019-05-12T02:35:30.751Z,47.60
2019-05-12T02:38:04.635Z,47.50
2019-05-12T02:40:34.695Z,47.50
2019-05-12T02:43:06.048Z,47.60
2019-05-12T02:45:36.899Z,47.40
2019-05-12T02:48:07.286Z,46.30
2019-05-12T02:50:38.434Z,48.00
2019-05-12T02:53:09.325Z,48.00
2019-05-12T02:55:40.029Z,47.60
2019-05-12T02:58:14.988Z,47.60
2019-05-12T03:00:45.506Z,48.50
2019-05-12T03:03:16.040Z,48.00
2019-05-12T03:05:46.427Z,48.40
2019-05-12T03:08:16.785Z,48.60
2019-05-12T03:10:47.980Z,49.20
2019-05-12T03:13:18.312Z,49.40
2019-05-12T03:15:48.673Z,49.90
2019-05-12T03:18:19.057Z,49.90
2019-05-12T03:20:49.824Z,49.90
2019-05-12T03:23:20.263Z,50.90
2019-05-12T03:25:50.610Z,50.40
2019-05-12T03:28:25.152Z,50.80
2019-05-12T03:30:57.386Z,50.60
2019-05-12T03:33:32.991Z,50.90
2019-05-12T03:36:00.547Z,51.10
2019-05-12T03:38:30.446Z,51.10
2019-05-12T03:41:01.079Z,51.90
2019-05-12T03:43:34.861Z,51.20
2019-05-12T03:46:05.240Z,51.90
2019-05-12T03:48:36.319Z,52.00
2019-05-12T03:51:07.361Z,52.60
2019-05-12T03:53:37.767Z,52.60
2019-05-12T03:56:08.141Z,53.30
2019-05-12T03:58:38.456Z,53.60
2019-05-12T04:01:09.240Z,53.20
2019-05-12T04:03:39.565Z,53.80
2019-05-12T04:06:09.938Z,53.10
2019-05-12T04:08:40.299Z,52.10
2019-05-12T04:11:10.705Z,52.60
2019-05-12T04:13:44.934Z,52.00
2019-05-12T04:16:16.339Z,51.60
2019-05-12T04:18:46.606Z,51.20
2019-05-12T04:21:17.317Z,50.70
2019-05-12T04:23:47.710Z,50.40
2019-05-12T04:26:18.236Z,50.90
2019-05-12T04:28:48.592Z,50.40
2019-05-12T04:31:18.935Z,50.60
2019-05-12T04:33:49.321Z,50.20
2019-05-12T04:36:19.672Z,51.00
2019-05-12T04:38:50.070Z,49.30
2019-05-12T04:41:20.528Z,50.10
2019-05-12T04:43:51.039Z,50.10
2019-05-12T04:46:25.034Z,49.80
2019-05-12T04:48:54.712Z,49.00
2019-05-12T04:51:45.194Z,49.60
2019-05-12T04:54:16.182Z,49.30
2019-05-12T04:56:46.531Z,47.80
2019-05-12T04:59:17.259Z,48.80
2019-05-12T05:01:47.931Z,48.50
2019-05-12T05:04:18.709Z,47.20
2019-05-12T05:06:49.054Z,47.20
2019-05-12T05:09:19.452Z,47.50
2019-05-12T05:11:49.830Z,47.70
2019-05-12T05:14:20.330Z,46.90
2019-05-12T05:16:50.692Z,46.80
2019-05-12T05:19:21.130Z,46.90
2019-05-12T05:21:54.051Z,47.30
2019-05-12T05:24:24.382Z,46.80
2019-05-12T05:26:54.792Z,47.30
2019-05-12T05:29:25.404Z,47.10
2019-05-12T05:31:55.809Z,46.90
2019-05-12T05:34:27.179Z,47.00
2019-05-12T05:37:01.472Z,45.60
2019-05-12T05:39:29.610Z,44.50
2019-05-12T05:42:00.372Z,44.20
2019-05-12T05:44:36.344Z,43.80
2019-05-12T05:47:04.354Z,44.40
2019-05-12T05:49:35.177Z,43.30
2019-05-12T05:52:05.973Z,43.00
2019-05-12T05:54:39.921Z,42.60
2019-05-12T05:57:08.457Z,41.70
2019-05-12T05:59:38.832Z,41.10
2019-05-12T06:02:10.036Z,40.90
2019-05-12T06:04:45.423Z,41.60
2019-05-12T06:07:14.351Z,41.40
2019-05-12T06:09:44.637Z,41.40
2019-05-12T06:12:14.970Z,41.70
2019-05-12T06:14:46.732Z,41.10
2019-05-12T06:17:17.698Z,42.20
2019-05-12T06:19:48.061Z,42.60
2019-05-12T06:22:18.587Z,42.60
2019-05-12T06:24:53.916Z,42.60
2019-05-12T06:27:24.142Z,42.60
2019-05-12T06:30:01.012Z,42.70
2019-05-12T06:32:26.823Z,41.20
2019-05-12T06:35:01.547Z,41.60
2019-05-12T06:37:29.262Z,42.60
2019-05-12T06:40:00.585Z,41.90
2019-05-12T06:42:31.065Z,40.70
2019-05-12T06:45:03.724Z,40.60
2019-05-12T06:47:34.449Z,42.20
2019-05-12T06:50:06.698Z,41.10
2019-05-12T06:52:38.703Z,41.60
2019-05-12T06:55:09.999Z,39.70
2019-05-12T06:57:48.056Z,40.10
2019-05-12T07:00:14.603Z,38.30
2019-05-12T07:02:52.212Z,37.10
2019-05-12T07:05:17.555Z,38.30
2019-05-12T07:07:48.200Z,36.40
2019-05-12T07:10:35.743Z,36.50
2019-05-12T07:12:58.933Z,37.20
2019-05-12T07:15:23.429Z,36.30
2019-05-12T07:18:01.508Z,35.70
2019-05-12T07:20:35.639Z,35.00
2019-05-12T07:23:04.320Z,35.00
2019-05-12T07:25:36.817Z,34.80
2019-05-12T07:28:08.088Z,34.50
2019-05-12T07:30:39.059Z,34.40
2019-05-12T07:33:09.403Z,35.10
2019-05-12T07:35:39.772Z,35.60
2019-05-12T07:38:12.062Z,34.90
2019-05-12T07:40:44.403Z,34.00
2019-05-12T07:43:16.177Z,32.10
2019-05-12T07:45:47.671Z,31.70
2019-05-12T07:48:18.814Z,30.00
2019-05-12T07:50:50.154Z,28.70
2019-05-12T07:53:23.373Z,30.30
2019-05-12T07:55:53.839Z,28.40
2019-05-12T07:58:24.400Z,28.80
2019-05-12T08:01:02.572Z,28.40
2019-05-12T08:03:27.289Z,29.20
2019-05-12T08:06:01.640Z,28.90
2019-05-12T08:08:29.756Z,29.40
2019-05-12T08:11:00.146Z,29.10
2019-05-12T08:13:37.824Z,29.20
2019-05-12T08:16:25.729Z,28.20
2019-05-12T08:18:54.528Z,29.80
2019-05-12T08:21:24.928Z,28.00
2019-05-12T08:23:55.268Z,28.30
2019-05-12T08:26:25.660Z,28.20
2019-05-12T08:28:56.440Z,26.80
2019-05-12T08:31:32.572Z,27.80
2019-05-12T08:33:59.205Z,26.20
2019-05-12T08:36:29.577Z,26.00
2019-05-12T08:39:03.024Z,26.60
2019-05-12T08:41:34.174Z,26.10
2019-05-12T08:44:04.755Z,26.10
2019-05-12T08:46:35.662Z,25.80
2019-05-12T08:49:11.524Z,26.20
2019-05-12T08:51:44.278Z,27.20
2019-05-12T08:54:14.786Z,25.80
2019-05-12T08:56:45.155Z,23.40
2019-05-12T08:59:18.501Z,23.60
2019-05-12T09:01:47.700Z,22.70
2019-05-12T09:04:18.748Z,23.10
2019-05-12T09:06:50.158Z,22.80
2019-05-12T09:09:23.263Z,22.30
2019-05-12T09:11:54.370Z,21.10
2019-05-12T09:14:25.644Z,22.80
2019-05-12T09:17:02.741Z,23.00
2019-05-12T09:19:28.101Z,20.10
2019-05-12T09:22:20.898Z,20.20
2019-05-12T09:24:50.286Z,20.80
2019-05-12T09:27:20.645Z,20.60
2019-05-12T09:29:51.322Z,20.50
2019-05-12T09:32:23.545Z,19.90
2019-05-12T09:34:58.246Z,20.50
2019-05-12T09:37:30.900Z,20.40
2019-05-12T09:39:58.401Z,21.80
2019-05-12T09:42:30.184Z,22.80
2019-05-12T09:45:06.037Z,22.80
2019-05-12T09:47:34.326Z,22.40
2019-05-12T09:50:09.781Z,21.30
2019-05-12T09:52:39.639Z,22.00
2019-05-12T09:55:10.365Z,22.70
2019-05-12T09:57:42.259Z,22.90
2019-05-12T10:00:13.723Z,21.80
2019-05-12T10:02:44.266Z,20.50
2019-05-12T10:05:14.715Z,20.60
2019-05-12T10:11:53.957Z,19.50
2019-05-12T10:14:19.398Z,19.80
2019-05-12T10:16:50.006Z,20.10
2019-05-12T10:19:20.646Z,19.90
2019-05-12T10:21:55.287Z,19.50
2019-05-12T10:24:23.715Z,18.30
2019-05-12T10:26:54.322Z,17.20
2019-05-12T10:29:30.746Z,18.00
2019-05-12T10:31:57.166Z,18.20
2019-05-12T10:34:29.380Z,19.50
2019-05-12T10:37:00.508Z,20.10
2019-05-12T10:39:30.873Z,19.10
2019-05-12T10:42:01.624Z,19.80
2019-05-12T10:44:37.698Z,20.80
2019-05-12T10:47:06.270Z,20.60
2019-05-12T10:49:36.885Z,18.80
2019-05-12T10:52:07.652Z,16.20
2019-05-12T10:54:38.314Z,16.30
2019-05-12T10:57:08.661Z,16.40
2019-05-12T10:59:45.203Z,16.40
2019-05-12T11:02:11.415Z,14.30
2019-05-12T11:04:44.013Z,16.20
2019-05-12T11:07:15.164Z,16.70
2019-05-12T11:09:45.835Z,16.00
2019-05-12T11:12:19.032Z,16.80
2019-05-12T11:14:49.825Z,15.70
2019-05-12T11:17:20.458Z,16.30
2019-05-12T11:19:53.652Z,16.20
2019-05-12T11:22:23.258Z,16.30
2019-05-12T11:24:55.855Z,13.20
2019-05-12T11:27:25.697Z,14.60
2019-05-12T11:29:56.576Z,14.90
2019-05-12T11:32:28.787Z,15.00
2019-05-12T11:34:59.494Z,15.70
2019-05-12T11:37:29.929Z,15.80
2019-05-12T11:40:00.652Z,16.50
2019-05-12T11:42:33.591Z,16.50
2019-05-12T11:45:03.993Z,17.20
2019-05-12T11:47:37.239Z,16.70
2019-05-12T11:50:09.952Z,15.60
2019-05-12T11:52:39.972Z,15.20
2019-05-12T11:55:10.336Z,15.90
2019-05-12T11:57:41.196Z,15.30
2019-05-12T12:00:13.857Z,15.70
2019-05-12T12:02:44.238Z,16.00
2019-05-12T12:05:14.777Z,15.70
2019-05-12T12:07:51.395Z,15.70
2019-05-12T12:10:17.215Z,16.30
2019-05-12T12:12:49.394Z,16.00
2019-05-12T12:15:20.567Z,16.80
2019-05-12T12:17:53.587Z,16.80
2019-05-12T12:20:24.401Z,16.50
2019-05-12T12:22:55.177Z,16.90
2019-05-12T12:25:27.578Z,16.90
2019-05-12T12:27:57.916Z,17.00
2019-05-12T12:30:28.311Z,16.80
2019-05-12T12:33:00.453Z,17.40
2019-05-12T12:35:34.038Z,16.90
2019-05-12T12:38:04.039Z,16.80
2019-05-12T12:40:34.941Z,17.00
2019-05-12T12:43:06.278Z,14.60
2019-05-12T12:45:44.142Z,13.40
2019-05-12T12:48:19.312Z,14.10
2019-05-12T12:50:46.492Z,14.60
2019-05-12T12:53:36.942Z,15.10
2019-05-12T12:56:07.277Z,15.30
2019-05-12T12:58:37.643Z,15.40
2019-05-12T13:01:08.033Z,15.50
2019-05-12T13:03:38.659Z,14.00
2019-05-12T13:06:09.020Z,13.90
2019-05-12T13:08:39.777Z,14.50
2019-05-12T13:11:10.492Z,14.60
2019-05-12T13:13:40.889Z,14.60
2019-05-12T13:16:13.281Z,14.80
2019-05-12T13:18:43.624Z,15.90
2019-05-12T13:21:14.025Z,14.80
2019-05-12T13:23:45.369Z,14.30
2019-05-12T13:26:15.801Z,13.30
2019-05-12T13:28:53.126Z,12.30
2019-05-12T13:31:19.243Z,12.50
2019-05-12T13:33:54.672Z,12.10
2019-05-12T13:36:24.049Z,12.80
2019-05-12T13:38:54.410Z,12.50
2019-05-12T13:41:25.184Z,12.60
2019-05-12T13:43:59.857Z,13.70
2019-05-12T13:46:27.958Z,13.00
2019-05-12T13:48:59.954Z,12.90
2019-05-12T13:51:30.393Z,12.30
2019-05-12T13:54:01.120Z,10.70
2019-05-12T13:56:33.616Z,12.20
2019-05-12T13:59:04.311Z,13.10
2019-05-12T14:01:40.247Z,12.40
2019-05-12T14:04:06.876Z,13.50
2019-05-12T14:06:38.030Z,13.90
2019-05-12T14:09:08.476Z,13.60
2019-05-12T14:11:38.904Z,13.80
2019-05-12T14:14:15.113Z,13.20
2019-05-12T14:16:46.250Z,13.30
2019-05-12T14:19:14.390Z,12.90
2019-05-12T14:21:45.328Z,13.10
2019-05-12T14:24:15.733Z,13.30
2019-05-12T14:26:49.342Z,13.20
2019-05-12T14:29:25.362Z,13.60
2019-05-12T14:31:56.019Z,13.10
2019-05-12T14:34:23.682Z,13.30
2019-05-12T14:37:04.984Z,12.70
2019-05-12T14:39:26.915Z,12.60
2019-05-12T14:41:57.662Z,13.10
2019-05-12T14:44:28.808Z,11.30
2019-05-12T14:46:59.169Z,12.30
2019-05-12T14:49:30.559Z,13.00
2019-05-12T14:52:03.365Z,12.90
2019-05-12T14:54:34.285Z,12.90
2019-05-12T14:57:05.258Z,13.30
2019-05-12T14:59:40.931Z,13.50
2019-05-12T15:02:09.516Z,12.70
2019-05-12T15:04:40.201Z,13.50
2019-05-12T15:07:10.552Z,13.70
2019-05-12T15:09:41.272Z,14.00
2019-05-12T15:12:14.052Z,13.50
2019-05-12T15:14:44.669Z,13.00
2019-05-12T15:17:22.524Z,13.50
2019-05-12T15:19:47.542Z,12.90
2019-05-12T15:22:17.965Z,13.30
2019-05-12T15:24:49.430Z,14.10
2019-05-12T15:27:37.280Z,13.80
2019-05-12T15:29:56.360Z,14.20
2019-05-12T15:32:25.339Z,14.20
2019-05-12T15:34:55.780Z,14.50
2019-05-12T15:37:29.041Z,13.70
2019-05-12T15:39:59.205Z,13.60
2019-05-12T15:42:29.829Z,13.10
2019-05-12T15:45:00.201Z,13.90
2019-05-12T15:47:30.551Z,13.40
2019-05-12T15:50:03.878Z,12.90
2019-05-12T15:52:37.777Z,12.80
2019-05-12T15:55:07.496Z,12.70
2019-05-12T15:57:37.869Z,13.20
2019-05-12T16:00:09.281Z,13.20
2019-05-12T16:02:39.662Z,12.80
2019-05-12T16:05:10.563Z,13.00
2019-05-12T16:07:43.502Z,13.10
2019-05-12T16:10:15.314Z,13.00
2019-05-12T16:12:46.048Z,12.70
2019-05-12T16:15:17.576Z,12.30
2019-05-12T16:17:48.952Z,13.30
2019-05-12T16:20:19.335Z,12.90
2019-05-12T16:22:49.707Z,12.70
2019-05-12T16:25:20.795Z,12.80
2019-05-12T16:27:52.150Z,12.50
2019-05-12T16:30:25.880Z,13.30
2019-05-12T16:32:55.246Z,13.10
2019-05-12T16:35:29.670Z,13.50
2019-05-12T16:37:58.077Z,14.00
2019-05-12T16:40:28.423Z,13.60
2019-05-12T16:43:00.006Z,13.80
2019-05-12T16:45:33.660Z,13.60
2019-05-12T16:48:05.471Z,14.10
2019-05-12T16:50:35.815Z,14.00
2019-05-12T16:53:06.593Z,13.70
2019-05-12T16:55:44.914Z,14.20
2019-05-12T16:58:08.999Z,13.60
2019-05-12T17:00:44.034Z,13.30
2019-05-12T17:03:14.229Z,13.00
2019-05-12T17:05:44.586Z,12.80
2019-05-12T17:08:15.501Z,13.40
2019-05-12T17:10:58.186Z,12.70
2019-05-12T17:13:19.837Z,12.90
2019-05-12T17:15:57.744Z,12.10
2019-05-12T17:18:24.508Z,11.60
2019-05-12T17:20:54.787Z,11.70
2019-05-12T17:23:25.280Z,12.30
2019-05-12T17:25:56.116Z,12.40
2019-05-12T17:28:26.527Z,12.80
2019-05-12T17:30:56.888Z,13.10
2019-05-12T17:33:27.909Z,13.10
2019-05-12T17:36:05.016Z,12.90
2019-05-12T17:38:30.946Z,13.20
2019-05-12T17:41:03.755Z,13.40
2019-05-12T17:43:34.026Z,13.20
2019-05-12T17:46:04.911Z,14.60
2019-05-12T17:48:42.720Z,14.80
2019-05-12T17:51:10.211Z,14.80
2019-05-12T17:53:40.591Z,15.40
2019-05-12T17:56:13.798Z,15.40
2019-05-12T17:58:47.345Z,15.80
2019-05-12T18:01:16.124Z,16.50
2019-05-12T18:03:50.603Z,17.00
2019-05-12T18:06:20.552Z,17.30
2019-05-12T18:08:53.275Z,17.60
2019-05-12T18:11:23.992Z,17.80
2019-05-12T18:14:01.737Z,17.90
2019-05-12T18:16:26.770Z,18.50
2019-05-12T18:18:57.479Z,19.30
2019-05-12T18:21:31.038Z,19.20
2019-05-12T18:24:00.416Z,19.60
2019-05-12T18:26:33.867Z,20.00
2019-05-12T18:29:04.711Z,20.40
2019-05-12T18:31:35.023Z,20.70
2019-05-12T18:34:05.818Z,20.50
2019-05-12T18:36:36.669Z,20.50
2019-05-12T18:39:11.461Z,20.30
2019-05-12T18:41:40.509Z,20.60
2019-05-12T18:44:18.191Z,20.60
2019-05-12T18:46:45.245Z,20.10
2019-05-12T18:49:16.379Z,19.70
2019-05-12T18:51:49.084Z,19.80
2019-05-12T18:54:19.588Z,20.10
2019-05-12T18:56:52.575Z,20.40
2019-05-12T18:59:22.540Z,20.50
2019-05-12T19:01:54.109Z,20.90
2019-05-12T19:04:24.572Z,21.20
2019-05-12T19:06:54.957Z,21.30
2019-05-12T19:09:25.693Z,21.60
2019-05-12T19:11:56.104Z,21.90
2019-05-12T19:14:34.968Z,22.20
2019-05-12T19:16:58.798Z,22.20
2019-05-12T19:19:29.536Z,22.20
2019-05-12T19:22:08.548Z,22.20
2019-05-12T19:24:33.639Z,22.10
2019-05-12T19:27:04.883Z,22.30
2019-05-12T19:29:45.511Z,22.70
2019-05-12T19:32:07.340Z,22.80
2019-05-12T19:34:39.422Z,22.80
2019-05-12T19:37:11.227Z,23.00
2019-05-12T19:39:44.449Z,23.30
2019-05-12T19:42:17.045Z,23.30
2019-05-12T19:44:46.766Z,23.20
2019-05-12T19:47:21.308Z,23.40
2019-05-12T19:49:50.698Z,23.50
2019-05-12T19:52:21.304Z,23.50
2019-05-12T19:54:52.122Z,23.40
2019-05-12T19:57:26.061Z,23.10
2019-05-12T19:59:55.926Z,23.10
2019-05-12T20:02:27.042Z,23.40
2019-05-12T20:04:57.388Z,23.50
2019-05-12T20:07:28.516Z,23.30
2019-05-12T20:10:00.611Z,23.70
2019-05-12T20:12:34.150Z,24.10
2019-05-12T20:15:07.439Z,24.10
2019-05-12T20:17:38.411Z,24.10
2019-05-12T20:20:09.146Z,24.00
2019-05-12T20:22:39.522Z,23.90
2019-05-12T20:25:10.460Z,23.60
2019-05-12T20:27:40.865Z,24.00
2019-05-12T20:30:16.858Z,23.80
2019-05-12T20:32:43.601Z,23.60
2019-05-12T20:35:14.695Z,23.90
2019-05-12T20:37:53.007Z,23.70
2019-05-12T20:40:17.662Z,23.70
2019-05-12T20:43:07.307Z,23.50
2019-05-12T20:45:23.553Z,23.60
2019-05-12T20:47:53.254Z,23.90
2019-05-12T20:50:32.219Z,23.70
2019-05-12T20:52:58.964Z,23.80
2019-05-12T20:55:30.033Z,23.90
2019-05-12T20:58:01.499Z,24.10
2019-05-12T21:00:33.658Z,24.10
2019-05-12T21:03:04.550Z,24.50
2019-05-12T21:05:34.885Z,24.40
2019-05-12T21:08:11.351Z,24.80
2019-05-12T21:10:37.309Z,25.20
2019-05-12T21:13:08.132Z,24.90
2019-05-12T21:15:42.779Z,24.60
2019-05-12T21:18:11.266Z,24.60
2019-05-12T21:20:46.362Z,24.80
2019-05-12T21:23:13.976Z,24.50
2019-05-12T21:25:52.176Z,24.40
2019-05-12T21:28:16.836Z,24.40
2019-05-12T21:30:49.635Z,24.60
2019-05-12T21:33:19.880Z,24.50
2019-05-12T21:35:51.023Z,24.90
2019-05-12T21:38:25.199Z,25.10
2019-05-12T21:41:15.581Z,24.90
2019-05-12T21:43:45.558Z,25.00
2019-05-12T21:46:16.438Z,24.80
2019-05-12T21:48:46.801Z,25.90
2019-05-12T21:51:19.960Z,25.40
2019-05-12T21:53:50.513Z,25.30
2019-05-12T21:56:24.298Z,25.20
2019-05-12T21:58:58.173Z,24.80
2019-05-12T22:01:26.950Z,24.80
2019-05-12T22:04:02.010Z,25.10
2019-05-12T22:06:30.236Z,25.10
2019-05-12T22:09:02.992Z,25.10
2019-05-12T22:11:34.730Z,25.70
2019-05-12T22:14:05.820Z,25.40
2019-05-12T22:16:43.799Z,25.40
2019-05-12T22:19:10.265Z,26.00
2019-05-12T22:21:44.435Z,25.20
2019-05-12T22:24:14.650Z,25.90
2019-05-12T22:26:57.934Z,25.10
2019-05-12T22:29:31.338Z,24.90
2019-05-12T22:32:00.687Z,25.20
2019-05-12T22:34:37.008Z,25.20
2019-05-12T22:37:04.002Z,25.80
2019-05-12T22:39:35.435Z,26.00
2019-05-12T22:42:06.303Z,26.10
2019-05-12T22:44:38.438Z,27.00
2019-05-12T22:47:15.816Z,26.70
2019-05-12T22:49:41.269Z,26.80
2019-05-12T22:52:13.681Z,27.70
2019-05-12T22:54:46.821Z,27.80
2019-05-12T22:57:16.434Z,27.90
2019-05-12T22:59:46.797Z,28.40
2019-05-12T23:02:25.382Z,28.60
2019-05-12T23:04:49.172Z,28.60
2019-05-12T23:07:25.407Z,28.60
2019-05-12T23:09:53.799Z,28.60
2019-05-12T23:12:23.974Z,28.70
2019-05-12T23:15:02.901Z,29.00
2019-05-12T23:17:26.723Z,29.10
2019-05-12T23:19:57.146Z,29.30
2019-05-12T23:22:29.476Z,29.40
2019-05-12T23:24:59.890Z,29.50
2019-05-12T23:27:30.270Z,29.60
2019-05-12T23:30:10.962Z,29.70
2019-05-12T23:32:34.624Z,29.90
2019-05-12T23:35:07.145Z,30.00
2019-05-12T23:37:40.153Z,30.80
2019-05-12T23:40:14.601Z,31.00
2019-05-12T23:42:44.603Z,31.10
2019-05-12T23:45:15.298Z,31.70
2019-05-12T23:47:46.040Z,31.30
2019-05-12T23:50:16.626Z,31.40
2019-05-12T23:52:47.492Z,31.80
2019-05-12T23:55:17.980Z,31.90
2019-05-12T23:57:48.802Z,31.90
